Torino — 2BZH7 — position and weather

sailwx.info

Track history (hours):
 
Tides and Currents Weather Stations Pressure Air Temp Water Temp Dewpoint Dewpoint Depression Visibility Wind Speed Wind Dir Waves Ship Positions

Torino

Last reported at 2017-Oct-08 10:07 UTC. Time now 2017-Oct-18 00:15 UTC.
Position N 34°46' E 139°35'.
Warning: this ship's position is 9 days out of date.

Length 200 m; draft 8.7 m.

Type: Cargo ship. MMSI: 235070707.

Date/timePositionNaut miles runAvg speedWind from/ knotsBaromVisibWave heightAir tempDewpointWater temp
2017-Oct-08 10:07N 34°46' E 139°35'110.2
2017-Oct-08 09:59N 34°47' E 139°35'5 9.7
2017-Oct-08 09:30N 34°51' E 139°37'5 9.4
2017-Oct-08 09:01N 34°56' E 139°40'5 9.0
2017-Oct-08 08:30N 34°60' E 139°41'4 9.1
2017-Oct-08 08:01N 35°04' E 139°43'5 9.6
2017-Oct-08 07:30N 35°09' E 139°45'510.3
2017-Oct-08 07:00N 35°14' E 139°46'611.9
2017-Oct-08 06:30N 35°19' E 139°43'612.8
2017-Oct-08 06:00N 35°26' E 139°43'2 4.6
2017-Oct-08 05:30N 35°28' E 139°42'0 0.3
2017-Oct-08 05:00N 35°28' E 139°41'0 0.0
2017-Oct-08 04:30N 35°28' E 139°41'0 0.0
2017-Oct-08 04:00N 35°28' E 139°41'0 0.0
2017-Oct-08 03:30N 35°28' E 139°41'0 0.0
2017-Oct-08 03:00N 35°28' E 139°41'0 0.0
2017-Oct-08 02:30N 35°28' E 139°41'0 0.0
2017-Oct-08 02:00N 35°28' E 139°41'0 0.0
2017-Oct-08 01:30N 35°28' E 139°41'0 0.0
2017-Oct-08 01:00N 35°28' E 139°41'0 0.0
2017-Oct-08 00:30N 35°28' E 139°41'0 0.0
2017-Oct-08 00:00N 35°28' E 139°41'0 0.0
2017-Oct-07 23:30N 35°28' E 139°41'0 0.0
2017-Oct-07 23:00N 35°28' E 139°41'0 0.0
2017-Oct-07 22:30N 35°28' E 139°41'0 0.1
2017-Oct-07 22:00N 35°28' E 139°41'2 4.1
2017-Oct-07 21:30N 35°26' E 139°43'0 0.6
2017-Oct-07 20:58N 35°26' E 139°43'0 0.0
2017-Oct-07 20:28N 35°26' E 139°43'0 0.0
2017-Oct-07 19:58N 35°26' E 139°43'0 0.0
2017-Oct-07 19:28N 35°26' E 139°43'0 0.1
2017-Oct-07 18:58N 35°26' E 139°44'0 0.0
2017-Oct-07 18:28N 35°26' E 139°44'0 0.1
2017-Oct-07 17:58N 35°26' E 139°43'0 0.0
2017-Oct-07 17:28N 35°26' E 139°43'0 0.1
2017-Oct-07 16:58N 35°26' E 139°43'0 0.0
2017-Oct-07 16:28N 35°26' E 139°43'0 0.1
2017-Oct-07 15:58N 35°26' E 139°43'0 0.0
2017-Oct-07 15:28N 35°26' E 139°43'0 0.0
2017-Oct-07 14:58N 35°26' E 139°43'0 0.0
2017-Oct-07 14:28N 35°26' E 139°43'0 0.0
2017-Oct-07 13:58N 35°26' E 139°43'0 0.1
2017-Oct-07 13:28N 35°26' E 139°43'0 0.0
2017-Oct-07 12:58N 35°26' E 139°43'0 0.0
2017-Oct-07 12:25N 35°26' E 139°43'0 0.1
2017-Oct-07 11:58N 35°26' E 139°43'0 0.0
2017-Oct-07 11:28N 35°26' E 139°43'0 0.0
2017-Oct-07 10:58N 35°26' E 139°43'0 0.0
2017-Oct-07 10:28N 35°26' E 139°43'0 0.0
2017-Oct-07 09:58N 35°26' E 139°43'0 0.0
2017-Oct-07 09:28N 35°26' E 139°43'0 0.0
2017-Oct-07 08:58N 35°26' E 139°43'0 0.2
2017-Oct-07 08:29N 35°26' E 139°44'3 6.0
2017-Oct-07 08:01N 35°24' E 139°42'510.3
2017-Oct-07 07:30N 35°18' E 139°42'2 3.4
2017-Oct-07 06:58N 35°17' E 139°41'0 0.0
2017-Oct-07 06:28N 35°17' E 139°41'0 0.0
2017-Oct-07 05:58N 35°17' E 139°41'0 0.0
2017-Oct-07 05:28N 35°17' E 139°41'0 0.0
2017-Oct-07 04:58N 35°17' E 139°41'0 0.0
2017-Oct-07 04:28N 35°17' E 139°41'0 0.0
2017-Oct-07 03:58N 35°17' E 139°41'0 0.0
2017-Oct-07 03:28N 35°17' E 139°41'0 0.0
2017-Oct-07 02:58N 35°17' E 139°41'0 0.0
2017-Oct-07 02:25N 35°17' E 139°41'0 0.0
2017-Oct-07 01:58N 35°17' E 139°41'0 0.0
2017-Oct-07 01:28N 35°17' E 139°41'0 0.0
2017-Oct-07 00:58N 35°17' E 139°41'0 0.0
2017-Oct-07 00:28N 35°17' E 139°41'0 0.0
2017-Oct-06 23:55N 35°17' E 139°41'0 0.0
2017-Oct-06 23:25N 35°17' E 139°41'0 0.0
2017-Oct-06 22:58N 35°17' E 139°41'0 0.0
2017-Oct-06 22:30N 35°17' E 139°41'2 3.5
2017-Oct-06 22:00N 35°18' E 139°42'5 9.6
2017-Oct-06 21:30N 35°15' E 139°47'611.5
2017-Oct-06 21:00N 35°09' E 139°46'5 8.9
2017-Oct-06 20:30N 35°05' E 139°44'3 5.8
2017-Oct-06 20:00N 35°03' E 139°43'4 8.1
2017-Oct-06 19:30N 34°59' E 139°41'6 9.0
2017-Oct-06 18:52N 34°54' E 139°45'410.1
2017-Oct-06 18:30N 34°51' E 139°48'1111.7
2017-Oct-06 17:32N 34°49' E 140°01'111.8
2017-Oct-06 17:27N 34°49' E 140°02'  
Track history (hours):
 
Tides and Currents Weather Stations Pressure Air Temp Water Temp Dewpoint Dewpoint Depression Visibility Wind Speed Wind Dir Waves Ship Positions

Torino

Last reported at 2017-Oct-08 10:07 UTC. Time now 2017-Oct-18 00:15 UTC.
Position N 34°46' E 139°35'.
Warning: this ship's position is 9 days out of date.

Length 200 m; draft 8.7 m.

Type: Cargo ship. MMSI: 235070707.

Date/timePositionNaut miles runAvg speedWind from/ knotsBaromVisibWave heightAir tempDewpointWater temp
2017-Oct-08 10:07N 34°46' E 139°35'110.2
2017-Oct-08 09:59N 34°47' E 139°35'5 9.7
2017-Oct-08 09:30N 34°51' E 139°37'5 9.4
2017-Oct-08 09:01N 34°56' E 139°40'5 9.0
2017-Oct-08 08:30N 34°60' E 139°41'4 9.1
2017-Oct-08 08:01N 35°04' E 139°43'5 9.6
2017-Oct-08 07:30N 35°09' E 139°45'510.3
2017-Oct-08 07:00N 35°14' E 139°46'611.9
2017-Oct-08 06:30N 35°19' E 139°43'612.8
2017-Oct-08 06:00N 35°26' E 139°43'2 4.6
2017-Oct-08 05:30N 35°28' E 139°42'0 0.3
2017-Oct-08 05:00N 35°28' E 139°41'0 0.0
2017-Oct-08 04:30N 35°28' E 139°41'0 0.0
2017-Oct-08 04:00N 35°28' E 139°41'0 0.0
2017-Oct-08 03:30N 35°28' E 139°41'0 0.0
2017-Oct-08 03:00N 35°28' E 139°41'0 0.0
2017-Oct-08 02:30N 35°28' E 139°41'0 0.0
2017-Oct-08 02:00N 35°28' E 139°41'0 0.0
2017-Oct-08 01:30N 35°28' E 139°41'0 0.0
2017-Oct-08 01:00N 35°28' E 139°41'0 0.0
2017-Oct-08 00:30N 35°28' E 139°41'0 0.0
2017-Oct-08 00:00N 35°28' E 139°41'0 0.0
2017-Oct-07 23:30N 35°28' E 139°41'0 0.0
2017-Oct-07 23:00N 35°28' E 139°41'0 0.0
2017-Oct-07 22:30N 35°28' E 139°41'0 0.1
2017-Oct-07 22:00N 35°28' E 139°41'2 4.1
2017-Oct-07 21:30N 35°26' E 139°43'0 0.6
2017-Oct-07 20:58N 35°26' E 139°43'0 0.0
2017-Oct-07 20:28N 35°26' E 139°43'0 0.0
2017-Oct-07 19:58N 35°26' E 139°43'0 0.0
2017-Oct-07 19:28N 35°26' E 139°43'0 0.1
2017-Oct-07 18:58N 35°26' E 139°44'0 0.0
2017-Oct-07 18:28N 35°26' E 139°44'0 0.1
2017-Oct-07 17:58N 35°26' E 139°43'0 0.0
2017-Oct-07 17:28N 35°26' E 139°43'0 0.1
2017-Oct-07 16:58N 35°26' E 139°43'0 0.0
2017-Oct-07 16:28N 35°26' E 139°43'0 0.1
2017-Oct-07 15:58N 35°26' E 139°43'0 0.0
2017-Oct-07 15:28N 35°26' E 139°43'0 0.0
2017-Oct-07 14:58N 35°26' E 139°43'0 0.0
2017-Oct-07 14:28N 35°26' E 139°43'0 0.0
2017-Oct-07 13:58N 35°26' E 139°43'0 0.1
2017-Oct-07 13:28N 35°26' E 139°43'0 0.0
2017-Oct-07 12:58N 35°26' E 139°43'0 0.0
2017-Oct-07 12:25N 35°26' E 139°43'0 0.1
2017-Oct-07 11:58N 35°26' E 139°43'0 0.0
2017-Oct-07 11:28N 35°26' E 139°43'0 0.0
2017-Oct-07 10:58N 35°26' E 139°43'0 0.0
2017-Oct-07 10:28N 35°26' E 139°43'0 0.0
2017-Oct-07 09:58N 35°26' E 139°43'0 0.0
2017-Oct-07 09:28N 35°26' E 139°43'0 0.0
2017-Oct-07 08:58N 35°26' E 139°43'0 0.2
2017-Oct-07 08:29N 35°26' E 139°44'3 6.0
2017-Oct-07 08:01N 35°24' E 139°42'510.3
2017-Oct-07 07:30N 35°18' E 139°42'2 3.4
2017-Oct-07 06:58N 35°17' E 139°41'0 0.0
2017-Oct-07 06:28N 35°17' E 139°41'0 0.0
2017-Oct-07 05:58N 35°17' E 139°41'0 0.0
2017-Oct-07 05:28N 35°17' E 139°41'0 0.0
2017-Oct-07 04:58N 35°17' E 139°41'0 0.0
2017-Oct-07 04:28N 35°17' E 139°41'0 0.0
2017-Oct-07 03:58N 35°17' E 139°41'0 0.0
2017-Oct-07 03:28N 35°17' E 139°41'0 0.0
2017-Oct-07 02:58N 35°17' E 139°41'0 0.0
2017-Oct-07 02:25N 35°17' E 139°41'0 0.0
2017-Oct-07 01:58N 35°17' E 139°41'0 0.0
2017-Oct-07 01:28N 35°17' E 139°41'0 0.0
2017-Oct-07 00:58N 35°17' E 139°41'0 0.0
2017-Oct-07 00:28N 35°17' E 139°41'0 0.0
2017-Oct-06 23:55N 35°17' E 139°41'0 0.0
2017-Oct-06 23:25N 35°17' E 139°41'0 0.0
2017-Oct-06 22:58N 35°17' E 139°41'0 0.0
2017-Oct-06 22:30N 35°17' E 139°41'2 3.5
2017-Oct-06 22:00N 35°18' E 139°42'5 9.6
2017-Oct-06 21:30N 35°15' E 139°47'611.5
2017-Oct-06 21:00N 35°09' E 139°46'5 8.9
2017-Oct-06 20:30N 35°05' E 139°44'3 5.8
2017-Oct-06 20:00N 35°03' E 139°43'4 8.1
2017-Oct-06 19:30N 34°59' E 139°41'6 9.0
2017-Oct-06 18:52N 34°54' E 139°45'410.1
2017-Oct-06 18:30N 34°51' E 139°48'1111.7
2017-Oct-06 17:32N 34°49' E 140°01'111.8
2017-Oct-06 17:27N 34°49' E 140°02'  

Dump ship's entire track history